sensor_id;sensor_type;location;lat;lon;timestamp;temperature;humidity
19003;DHT22;9634;51.040;13.794;2022-11-14T00:01:12;7.20;99.90
19003;DHT22;9634;51.040;13.794;2022-11-14T00:06:32;7.20;99.90
19003;DHT22;9634;51.040;13.794;2022-11-14T00:11:53;7.10;99.90
19003;DHT22;9634;51.040;13.794;2022-11-14T00:17:16;7.00;99.90
19003;DHT22;9634;51.040;13.794;2022-11-14T00:22:37;7.10;99.90
19003;DHT22;9634;51.040;13.794;2022-11-14T00:27:58;7.10;99.90
19003;DHT22;9634;51.040;13.794;2022-11-14T00:33:20;7.20;99.90
19003;DHT22;9634;51.040;13.794;2022-11-14T00:38:41;7.20;99.90
19003;DHT22;9634;51.040;13.794;2022-11-14T00:44:02;7.30;99.90
19003;DHT22;9634;51.040;13.794;2022-11-14T00:49:24;7.30;99.90
19003;DHT22;9634;51.040;13.794;2022-11-14T00:54:45;7.40;99.90
19003;DHT22;9634;51.040;13.794;2022-11-14T01:00:07;7.50;99.90
19003;DHT22;9634;51.040;13.794;2022-11-14T01:05:29;7.60;99.90
19003;DHT22;9634;51.040;13.794;2022-11-14T01:10:50;7.50;99.90
19003;DHT22;9634;51.040;13.794;2022-11-14T01:16:11;7.60;99.90
19003;DHT22;9634;51.040;13.794;2022-11-14T01:21:33;7.60;99.90
19003;DHT22;9634;51.040;13.794;2022-11-14T01:26:54;7.60;99.90
19003;DHT22;9634;51.040;13.794;2022-11-14T01:32:15;7.50;99.90
19003;DHT22;9634;51.040;13.794;2022-11-14T01:37:37;7.50;99.90
19003;DHT22;9634;51.040;13.794;2022-11-14T01:43:24;7.60;99.90
19003;DHT22;9634;51.040;13.794;2022-11-14T01:48:48;7.60;99.90
19003;DHT22;9634;51.040;13.794;2022-11-14T01:54:15;7.50;99.90
19003;DHT22;9634;51.040;13.794;2022-11-14T01:59:40;7.50;99.90
19003;DHT22;9634;51.040;13.794;2022-11-14T02:05:04;7.50;99.90
19003;DHT22;9634;51.040;13.794;2022-11-14T02:10:27;7.50;99.90
19003;DHT22;9634;51.040;13.794;2022-11-14T02:15:47;7.60;99.90
19003;DHT22;9634;51.040;13.794;2022-11-14T02:21:10;7.60;99.90
19003;DHT22;9634;51.040;13.794;2022-11-14T02:26:30;7.50;99.90
19003;DHT22;9634;51.040;13.794;2022-11-14T02:31:51;7.50;99.90
19003;DHT22;9634;51.040;13.794;2022-11-14T02:37:13;7.50;99.90
19003;DHT22;9634;51.040;13.794;2022-11-14T02:42:34;7.50;99.90
19003;DHT22;9634;51.040;13.794;2022-11-14T02:47:55;7.50;99.90
19003;DHT22;9634;51.040;13.794;2022-11-14T02:53:17;7.50;99.90
19003;DHT22;9634;51.040;13.794;2022-11-14T02:58:38;7.60;99.90
19003;DHT22;9634;51.040;13.794;2022-11-14T03:03:59;7.70;99.90
19003;DHT22;9634;51.040;13.794;2022-11-14T03:09:21;7.80;99.90
19003;DHT22;9634;51.040;13.794;2022-11-14T03:14:42;7.80;99.90
19003;DHT22;9634;51.040;13.794;2022-11-14T03:20:03;7.80;99.90
19003;DHT22;9634;51.040;13.794;2022-11-14T03:25:25;7.70;99.90
19003;DHT22;9634;51.040;13.794;2022-11-14T03:30:46;7.70;99.90
19003;DHT22;9634;51.040;13.794;2022-11-14T03:36:07;7.90;99.90
19003;DHT22;9634;51.040;13.794;2022-11-14T03:41:30;7.90;99.90
19003;DHT22;9634;51.040;13.794;2022-11-14T03:46:51;8.00;99.90
19003;DHT22;9634;51.040;13.794;2022-11-14T03:52:11;8.00;99.90
19003;DHT22;9634;51.040;13.794;2022-11-14T03:57:33;8.10;99.90
19003;DHT22;9634;51.040;13.794;2022-11-14T04:02:54;8.10;99.90
19003;DHT22;9634;51.040;13.794;2022-11-14T04:08:15;8.20;99.90
19003;DHT22;9634;51.040;13.794;2022-11-14T04:13:38;8.20;99.90
19003;DHT22;9634;51.040;13.794;2022-11-14T04:18:59;8.20;99.90
19003;DHT22;9634;51.040;13.794;2022-11-14T04:24:19;8.30;99.90
19003;DHT22;9634;51.040;13.794;2022-11-14T04:29:42;8.30;99.90
19003;DHT22;9634;51.040;13.794;2022-11-14T04:35:03;8.20;99.90
19003;DHT22;9634;51.040;13.794;2022-11-14T04:40:24;8.20;99.90
19003;DHT22;9634;51.040;13.794;2022-11-14T04:45:46;8.20;99.90
19003;DHT22;9634;51.040;13.794;2022-11-14T04:51:07;8.10;99.90
19003;DHT22;9634;51.040;13.794;2022-11-14T04:56:28;8.00;99.90
19003;DHT22;9634;51.040;13.794;2022-11-14T05:01:50;8.00;99.90
19003;DHT22;9634;51.040;13.794;2022-11-14T05:07:11;8.10;99.90
19003;DHT22;9634;51.040;13.794;2022-11-14T05:12:33;8.00;99.90
19003;DHT22;9634;51.040;13.794;2022-11-14T05:17:56;8.00;99.90
19003;DHT22;9634;51.040;13.794;2022-11-14T05:23:19;7.80;99.90
19003;DHT22;9634;51.040;13.794;2022-11-14T05:28:40;7.80;99.90
19003;DHT22;9634;51.040;13.794;2022-11-14T05:34:02;7.70;99.90
19003;DHT22;9634;51.040;13.794;2022-11-14T05:39:22;7.60;99.90
19003;DHT22;9634;51.040;13.794;2022-11-14T05:44:43;7.50;99.90
19003;DHT22;9634;51.040;13.794;2022-11-14T05:50:06;7.30;99.90
19003;DHT22;9634;51.040;13.794;2022-11-14T05:55:27;7.10;99.90
19003;DHT22;9634;51.040;13.794;2022-11-14T06:00:47;7.20;99.90
19003;DHT22;9634;51.040;13.794;2022-11-14T06:06:12;7.10;99.90
19003;DHT22;9634;51.040;13.794;2022-11-14T06:11:33;7.00;99.90
19003;DHT22;9634;51.040;13.794;2022-11-14T06:16:54;7.10;99.90
19003;DHT22;9634;51.040;13.794;2022-11-14T06:22:15;7.10;99.90
19003;DHT22;9634;51.040;13.794;2022-11-14T06:27:37;7.10;99.90
19003;DHT22;9634;51.040;13.794;2022-11-14T06:32:57;7.30;99.90
19003;DHT22;9634;51.040;13.794;2022-11-14T06:38:19;7.60;99.90
19003;DHT22;9634;51.040;13.794;2022-11-14T06:43:41;7.80;99.90
19003;DHT22;9634;51.040;13.794;2022-11-14T06:49:03;7.90;99.90
19003;DHT22;9634;51.040;13.794;2022-11-14T06:54:25;7.90;99.90
19003;DHT22;9634;51.040;13.794;2022-11-14T06:59:46;8.00;99.90
19003;DHT22;9634;51.040;13.794;2022-11-14T07:05:07;8.20;99.90
19003;DHT22;9634;51.040;13.794;2022-11-14T07:10:29;8.40;99.90
19003;DHT22;9634;51.040;13.794;2022-11-14T07:15:50;8.60;99.90
19003;DHT22;9634;51.040;13.794;2022-11-14T07:21:11;8.70;99.90
19003;DHT22;9634;51.040;13.794;2022-11-14T07:26:33;9.00;99.90
19003;DHT22;9634;51.040;13.794;2022-11-14T07:31:54;9.20;99.90
19003;DHT22;9634;51.040;13.794;2022-11-14T07:37:15;9.60;99.90
19003;DHT22;9634;51.040;13.794;2022-11-14T07:42:37;9.90;99.90
19003;DHT22;9634;51.040;13.794;2022-11-14T07:47:58;10.10;99.90
19003;DHT22;9634;51.040;13.794;2022-11-14T07:53:19;10.40;99.90
19003;DHT22;9634;51.040;13.794;2022-11-14T07:58:41;10.70;99.90
19003;DHT22;9634;51.040;13.794;2022-11-14T08:04:02;11.40;99.90
19003;DHT22;9634;51.040;13.794;2022-11-14T08:09:23;11.80;99.90
19003;DHT22;9634;51.040;13.794;2022-11-14T08:14:44;12.00;99.90
19003;DHT22;9634;51.040;13.794;2022-11-14T08:20:07;12.10;99.90
19003;DHT22;9634;51.040;13.794;2022-11-14T08:25:28;11.60;99.90
19003;DHT22;9634;51.040;13.794;2022-11-14T08:30:50;11.40;99.90
19003;DHT22;9634;51.040;13.794;2022-11-14T08:36:11;12.60;99.90
19003;DHT22;9634;51.040;13.794;2022-11-14T08:41:32;14.00;99.90
19003;DHT22;9634;51.040;13.794;2022-11-14T08:46:54;14.90;99.90
19003;DHT22;9634;51.040;13.794;2022-11-14T08:52:15;14.90;99.90
19003;DHT22;9634;51.040;13.794;2022-11-14T08:57:35;15.00;99.90
19003;DHT22;9634;51.040;13.794;2022-11-14T09:02:57;15.90;99.90
19003;DHT22;9634;51.040;13.794;2022-11-14T09:08:18;15.80;99.90
19003;DHT22;9634;51.040;13.794;2022-11-14T09:13:38;16.10;99.90
19003;DHT22;9634;51.040;13.794;2022-11-14T09:19:00;16.00;99.90
19003;DHT22;9634;51.040;13.794;2022-11-14T09:24:21;16.00;99.90
19003;DHT22;9634;51.040;13.794;2022-11-14T09:29:41;16.00;99.90
19003;DHT22;9634;51.040;13.794;2022-11-14T09:35:04;16.20;99.20
19003;DHT22;9634;51.040;13.794;2022-11-14T09:40:24;16.50;96.30
19003;DHT22;9634;51.040;13.794;2022-11-14T09:45:48;17.20;92.10
19003;DHT22;9634;51.040;13.794;2022-11-14T09:51:15;16.10;96.80
19003;DHT22;9634;51.040;13.794;2022-11-14T09:56:36;15.80;99.80
19003;DHT22;9634;51.040;13.794;2022-11-14T10:02:02;16.50;96.10
19003;DHT22;9634;51.040;13.794;2022-11-14T10:07:33;17.20;90.70
19003;DHT22;9634;51.040;13.794;2022-11-14T10:13:02;18.10;78.80
19003;DHT22;9634;51.040;13.794;2022-11-14T10:18:36;18.20;75.70
19003;DHT22;9634;51.040;13.794;2022-11-14T10:24:08;19.80;61.70
19003;DHT22;9634;51.040;13.794;2022-11-14T10:29:53;20.60;52.00
19003;DHT22;9634;51.040;13.794;2022-11-14T10:35:20;20.20;50.30
19003;DHT22;9634;51.040;13.794;2022-11-14T10:40:45;20.10;51.00
19003;DHT22;9634;51.040;13.794;2022-11-14T10:46:11;19.30;53.80
19003;DHT22;9634;51.040;13.794;2022-11-14T10:51:37;21.00;48.50
19003;DHT22;9634;51.040;13.794;2022-11-14T10:57:00;20.10;49.60
19003;DHT22;9634;51.040;13.794;2022-11-14T11:02:22;21.10;46.60
19003;DHT22;9634;51.040;13.794;2022-11-14T11:07:44;20.80;44.90
19003;DHT22;9634;51.040;13.794;2022-11-14T11:13:33;20.50;46.50
19003;DHT22;9634;51.040;13.794;2022-11-14T11:19:13;20.60;46.20
19003;DHT22;9634;51.040;13.794;2022-11-14T11:24:35;20.10;46.90
19003;DHT22;9634;51.040;13.794;2022-11-14T11:30:11;21.10;43.90
19003;DHT22;9634;51.040;13.794;2022-11-14T11:35:35;20.10;46.10
19003;DHT22;9634;51.040;13.794;2022-11-14T11:41:05;20.80;44.70
19003;DHT22;9634;51.040;13.794;2022-11-14T11:46:33;20.10;46.20
19003;DHT22;9634;51.040;13.794;2022-11-14T11:52:02;20.90;43.80
19003;DHT22;9634;51.040;13.794;2022-11-14T11:57:27;20.60;44.20
19003;DHT22;9634;51.040;13.794;2022-11-14T12:02:53;20.60;44.50
19003;DHT22;9634;51.040;13.794;2022-11-14T12:08:19;22.10;39.60
19003;DHT22;9634;51.040;13.794;2022-11-14T12:14:11;21.00;41.80
19003;DHT22;9634;51.040;13.794;2022-11-14T12:19:52;21.00;41.90
19003;DHT22;9634;51.040;13.794;2022-11-14T12:25:41;21.20;40.60
19003;DHT22;9634;51.040;13.794;2022-11-14T12:31:08;21.30;40.70
19003;DHT22;9634;51.040;13.794;2022-11-14T12:36:33;22.20;38.80
19003;DHT22;9634;51.040;13.794;2022-11-14T12:42:00;22.10;37.60
19003;DHT22;9634;51.040;13.794;2022-11-14T12:47:23;21.90;37.60
19003;DHT22;9634;51.040;13.794;2022-11-14T12:52:48;22.10;38.10
19003;DHT22;9634;51.040;13.794;2022-11-14T12:58:11;23.00;35.20
19003;DHT22;9634;51.040;13.794;2022-11-14T13:03:46;22.30;35.80
19003;DHT22;9634;51.040;13.794;2022-11-14T13:09:30;22.50;35.90
19003;DHT22;9634;51.040;13.794;2022-11-14T13:14:52;22.30;34.80
19003;DHT22;9634;51.040;13.794;2022-11-14T13:20:33;23.00;34.20
19003;DHT22;9634;51.040;13.794;2022-11-14T13:26:39;25.30;29.60
19003;DHT22;9634;51.040;13.794;2022-11-14T13:32:01;25.20;29.00
19003;DHT22;9634;51.040;13.794;2022-11-14T13:37:38;23.70;31.20
19003;DHT22;9634;51.040;13.794;2022-11-14T13:43:06;23.70;30.60
19003;DHT22;9634;51.040;13.794;2022-11-14T13:49:00;22.40;33.20
19003;DHT22;9634;51.040;13.794;2022-11-14T13:54:26;20.40;36.90
19003;DHT22;9634;51.040;13.794;2022-11-14T14:00:00;20.00;40.40
19003;DHT22;9634;51.040;13.794;2022-11-14T14:05:28;19.70;41.60
19003;DHT22;9634;51.040;13.794;2022-11-14T14:11:02;19.50;43.00
19003;DHT22;9634;51.040;13.794;2022-11-14T14:16:33;17.90;50.50
19003;DHT22;9634;51.040;13.794;2022-11-14T14:22:00;17.20;56.50
19003;DHT22;9634;51.040;13.794;2022-11-14T14:27:28;16.90;67.40
19003;DHT22;9634;51.040;13.794;2022-11-14T14:33:08;17.50;61.30
19003;DHT22;9634;51.040;13.794;2022-11-14T14:38:29;17.20;63.00
19003;DHT22;9634;51.040;13.794;2022-11-14T14:43:52;14.60;99.50
19003;DHT22;9634;51.040;13.794;2022-11-14T14:49:20;13.10;99.90
19003;DHT22;9634;51.040;13.794;2022-11-14T14:54:41;12.20;99.90
19003;DHT22;9634;51.040;13.794;2022-11-14T15:00:05;11.80;99.90
19003;DHT22;9634;51.040;13.794;2022-11-14T15:05:28;11.40;1.00
19003;DHT22;9634;51.040;13.794;2022-11-14T15:10:49;11.10;1.00
19003;DHT22;9634;51.040;13.794;2022-11-14T15:16:11;10.90;1.00
19003;DHT22;9634;51.040;13.794;2022-11-14T15:21:33;10.70;1.00
19003;DHT22;9634;51.040;13.794;2022-11-14T15:26:54;10.50;1.00
19003;DHT22;9634;51.040;13.794;2022-11-14T15:32:18;10.30;1.00
19003;DHT22;9634;51.040;13.794;2022-11-14T15:38:02;10.10;1.00
19003;DHT22;9634;51.040;13.794;2022-11-14T15:43:37;10.10;1.00
19003;DHT22;9634;51.040;13.794;2022-11-14T15:49:07;10.00;1.00
19003;DHT22;9634;51.040;13.794;2022-11-14T15:54:31;9.80;1.00
19003;DHT22;9634;51.040;13.794;2022-11-14T15:59:52;9.70;1.00
19003;DHT22;9634;51.040;13.794;2022-11-14T16:05:14;9.90;1.00
19003;DHT22;9634;51.040;13.794;2022-11-14T16:10:37;9.90;99.90
19003;DHT22;9634;51.040;13.794;2022-11-14T16:15:58;9.90;99.90
19003;DHT22;9634;51.040;13.794;2022-11-14T16:21:19;9.70;99.90
19003;DHT22;9634;51.040;13.794;2022-11-14T16:26:40;9.50;1.00
19003;DHT22;9634;51.040;13.794;2022-11-14T16:32:01;9.30;1.00
19003;DHT22;9634;51.040;13.794;2022-11-14T16:37:22;9.20;1.00
19003;DHT22;9634;51.040;13.794;2022-11-14T16:42:45;9.20;1.00
19003;DHT22;9634;51.040;13.794;2022-11-14T16:48:06;9.20;1.00
19003;DHT22;9634;51.040;13.794;2022-11-14T16:53:26;9.10;1.00
19003;DHT22;9634;51.040;13.794;2022-11-14T16:58:52;9.10;1.00
19003;DHT22;9634;51.040;13.794;2022-11-14T17:04:13;9.10;1.00
19003;DHT22;9634;51.040;13.794;2022-11-14T17:09:34;9.10;1.00
19003;DHT22;9634;51.040;13.794;2022-11-14T17:14:56;9.20;1.00
19003;DHT22;9634;51.040;13.794;2022-11-14T17:20:17;9.10;1.00
19003;DHT22;9634;51.040;13.794;2022-11-14T17:25:38;9.10;1.00
19003;DHT22;9634;51.040;13.794;2022-11-14T17:31:05;9.00;1.00
19003;DHT22;9634;51.040;13.794;2022-11-14T17:36:27;9.00;1.00
19003;DHT22;9634;51.040;13.794;2022-11-14T17:41:48;9.00;1.00
19003;DHT22;9634;51.040;13.794;2022-11-14T17:47:10;8.90;1.00
19003;DHT22;9634;51.040;13.794;2022-11-14T17:52:31;8.90;1.00
19003;DHT22;9634;51.040;13.794;2022-11-14T17:57:52;8.90;1.00
19003;DHT22;9634;51.040;13.794;2022-11-14T18:03:14;8.80;1.00
19003;DHT22;9634;51.040;13.794;2022-11-14T18:08:35;8.80;4.40
19003;DHT22;9634;51.040;13.794;2022-11-14T18:13:56;8.80;17.10
19003;DHT22;9634;51.040;13.794;2022-11-14T18:19:18;8.80;27.80
19003;DHT22;9634;51.040;13.794;2022-11-14T18:24:39;8.90;9.40
19003;DHT22;9634;51.040;13.794;2022-11-14T18:30:06;8.80;19.40
19003;DHT22;9634;51.040;13.794;2022-11-14T18:35:29;8.80;20.90
19003;DHT22;9634;51.040;13.794;2022-11-14T18:40:50;8.70;36.40
19003;DHT22;9634;51.040;13.794;2022-11-14T18:46:13;8.70;51.60
19003;DHT22;9634;51.040;13.794;2022-11-14T18:51:36;8.70;75.10
19003;DHT22;9634;51.040;13.794;2022-11-14T18:57:00;8.60;77.90
19003;DHT22;9634;51.040;13.794;2022-11-14T19:02:21;8.70;67.00
19003;DHT22;9634;51.040;13.794;2022-11-14T19:07:44;8.80;35.70
19003;DHT22;9634;51.040;13.794;2022-11-14T19:13:06;8.80;30.20
19003;DHT22;9634;51.040;13.794;2022-11-14T19:18:28;8.80;39.70
19003;DHT22;9634;51.040;13.794;2022-11-14T19:23:51;8.80;29.40
19003;DHT22;9634;51.040;13.794;2022-11-14T19:29:16;8.70;47.30
19003;DHT22;9634;51.040;13.794;2022-11-14T19:34:37;8.60;88.20
19003;DHT22;9634;51.040;13.794;2022-11-14T19:39:59;8.70;75.00
19003;DHT22;9634;51.040;13.794;2022-11-14T19:45:21;8.60;65.90
19003;DHT22;9634;51.040;13.794;2022-11-14T19:50:42;8.60;76.50
19003;DHT22;9634;51.040;13.794;2022-11-14T19:56:06;8.70;63.50
19003;DHT22;9634;51.040;13.794;2022-11-14T20:01:28;8.60;81.40
19003;DHT22;9634;51.040;13.794;2022-11-14T20:06:49;8.50;98.20
19003;DHT22;9634;51.040;13.794;2022-11-14T20:12:12;8.40;99.90
19003;DHT22;9634;51.040;13.794;2022-11-14T20:17:33;8.30;99.90
19003;DHT22;9634;51.040;13.794;2022-11-14T20:22:54;8.20;99.90
19003;DHT22;9634;51.040;13.794;2022-11-14T20:28:17;8.30;99.90
19003;DHT22;9634;51.040;13.794;2022-11-14T20:33:40;8.40;99.90
19003;DHT22;9634;51.040;13.794;2022-11-14T20:39:01;8.20;99.90
19003;DHT22;9634;51.040;13.794;2022-11-14T20:44:23;8.20;99.90
19003;DHT22;9634;51.040;13.794;2022-11-14T20:49:44;8.30;99.90
19003;DHT22;9634;51.040;13.794;2022-11-14T20:55:09;8.40;99.90
19003;DHT22;9634;51.040;13.794;2022-11-14T21:00:31;8.50;99.90
19003;DHT22;9634;51.040;13.794;2022-11-14T21:05:52;8.60;99.90
19003;DHT22;9634;51.040;13.794;2022-11-14T21:11:15;8.60;99.90
19003;DHT22;9634;51.040;13.794;2022-11-14T21:16:38;8.60;99.90
19003;DHT22;9634;51.040;13.794;2022-11-14T21:21:59;8.60;99.90
19003;DHT22;9634;51.040;13.794;2022-11-14T21:27:20;8.60;99.90
19003;DHT22;9634;51.040;13.794;2022-11-14T21:32:43;8.60;99.90
19003;DHT22;9634;51.040;13.794;2022-11-14T21:38:04;8.50;99.90
19003;DHT22;9634;51.040;13.794;2022-11-14T21:43:25;8.60;99.90
19003;DHT22;9634;51.040;13.794;2022-11-14T21:48:48;8.50;99.90
19003;DHT22;9634;51.040;13.794;2022-11-14T21:54:10;8.30;99.90
19003;DHT22;9634;51.040;13.794;2022-11-14T21:59:31;8.20;99.90
19003;DHT22;9634;51.040;13.794;2022-11-14T22:04:54;8.20;99.90
19003;DHT22;9634;51.040;13.794;2022-11-14T22:10:15;8.00;99.90
19003;DHT22;9634;51.040;13.794;2022-11-14T22:15:37;8.00;99.90
19003;DHT22;9634;51.040;13.794;2022-11-14T22:21:00;7.80;99.90
19003;DHT22;9634;51.040;13.794;2022-11-14T22:26:21;7.60;99.90
19003;DHT22;9634;51.040;13.794;2022-11-14T22:31:42;7.50;99.90
19003;DHT22;9634;51.040;13.794;2022-11-14T22:37:05;7.70;99.90
19003;DHT22;9634;51.040;13.794;2022-11-14T22:42:26;7.60;99.90
19003;DHT22;9634;51.040;13.794;2022-11-14T22:47:47;7.80;99.90
19003;DHT22;9634;51.040;13.794;2022-11-14T22:53:09;7.80;99.90
19003;DHT22;9634;51.040;13.794;2022-11-14T22:58:31;7.70;99.90
19003;DHT22;9634;51.040;13.794;2022-11-14T23:03:54;7.80;99.90
19003;DHT22;9634;51.040;13.794;2022-11-14T23:09:17;7.90;99.90
19003;DHT22;9634;51.040;13.794;2022-11-14T23:14:38;8.00;99.90
19003;DHT22;9634;51.040;13.794;2022-11-14T23:19:59;8.10;99.90
19003;DHT22;9634;51.040;13.794;2022-11-14T23:25:22;8.10;99.90
19003;DHT22;9634;51.040;13.794;2022-11-14T23:30:44;8.20;99.90
19003;DHT22;9634;51.040;13.794;2022-11-14T23:36:05;8.10;99.90
19003;DHT22;9634;51.040;13.794;2022-11-14T23:41:27;8.00;99.90
19003;DHT22;9634;51.040;13.794;2022-11-14T23:46:48;7.90;99.90
19003;DHT22;9634;51.040;13.794;2022-11-14T23:52:10;7.90;99.90
19003;DHT22;9634;51.040;13.794;2022-11-14T23:57:33;7.80;99.90
